sensor_id;sensor_type;location;lat;lon;timestamp;temperature;humidity
19168;DHT22;9716;53.114;18.040;2023-04-16T00:01:53;10.60;99.90
19168;DHT22;9716;53.114;18.040;2023-04-16T00:04:22;10.50;99.90
19168;DHT22;9716;53.114;18.040;2023-04-16T00:06:50;10.50;99.90
19168;DHT22;9716;53.114;18.040;2023-04-16T00:09:19;10.50;99.90
19168;DHT22;9716;53.114;18.040;2023-04-16T00:11:47;10.50;99.90
19168;DHT22;9716;53.114;18.040;2023-04-16T00:14:17;10.50;99.90
19168;DHT22;9716;53.114;18.040;2023-04-16T00:16:46;10.50;99.90
19168;DHT22;9716;53.114;18.040;2023-04-16T00:19:14;10.50;99.90
19168;DHT22;9716;53.114;18.040;2023-04-16T00:21:43;10.40;99.90
19168;DHT22;9716;53.114;18.040;2023-04-16T00:24:11;10.40;99.90
19168;DHT22;9716;53.114;18.040;2023-04-16T00:26:40;10.40;99.90
19168;DHT22;9716;53.114;18.040;2023-04-16T00:29:10;10.40;99.90
19168;DHT22;9716;53.114;18.040;2023-04-16T00:31:40;10.30;99.90
19168;DHT22;9716;53.114;18.040;2023-04-16T00:34:08;10.30;99.90
19168;DHT22;9716;53.114;18.040;2023-04-16T00:36:37;10.30;99.90
19168;DHT22;9716;53.114;18.040;2023-04-16T00:39:05;10.30;99.90
19168;DHT22;9716;53.114;18.040;2023-04-16T00:41:34;10.30;99.90
19168;DHT22;9716;53.114;18.040;2023-04-16T00:44:02;10.30;99.90
19168;DHT22;9716;53.114;18.040;2023-04-16T00:46:31;10.20;99.90
19168;DHT22;9716;53.114;18.040;2023-04-16T00:49:02;10.20;99.90
19168;DHT22;9716;53.114;18.040;2023-04-16T00:51:31;10.20;99.90
19168;DHT22;9716;53.114;18.040;2023-04-16T00:54:00;10.20;99.90
19168;DHT22;9716;53.114;18.040;2023-04-16T00:56:29;10.20;99.90
19168;DHT22;9716;53.114;18.040;2023-04-16T00:58:58;10.20;99.90
19168;DHT22;9716;53.114;18.040;2023-04-16T01:01:27;10.20;99.90
19168;DHT22;9716;53.114;18.040;2023-04-16T01:03:55;10.10;99.90
19168;DHT22;9716;53.114;18.040;2023-04-16T01:06:25;10.10;99.90
19168;DHT22;9716;53.114;18.040;2023-04-16T01:08:54;10.10;99.90
19168;DHT22;9716;53.114;18.040;2023-04-16T01:11:22;10.10;99.90
19168;DHT22;9716;53.114;18.040;2023-04-16T01:13:50;10.10;99.90
19168;DHT22;9716;53.114;18.040;2023-04-16T01:16:19;10.10;99.90
19168;DHT22;9716;53.114;18.040;2023-04-16T01:18:47;10.10;99.90
19168;DHT22;9716;53.114;18.040;2023-04-16T01:21:17;10.10;99.90
19168;DHT22;9716;53.114;18.040;2023-04-16T01:23:46;10.10;99.90
19168;DHT22;9716;53.114;18.040;2023-04-16T01:26:14;10.10;99.90
19168;DHT22;9716;53.114;18.040;2023-04-16T01:28:42;10.10;99.90
19168;DHT22;9716;53.114;18.040;2023-04-16T01:31:14;10.10;99.90
19168;DHT22;9716;53.114;18.040;2023-04-16T01:33:42;10.10;99.90
19168;DHT22;9716;53.114;18.040;2023-04-16T01:36:11;10.10;99.90
19168;DHT22;9716;53.114;18.040;2023-04-16T01:38:40;10.10;99.90
19168;DHT22;9716;53.114;18.040;2023-04-16T01:41:09;10.10;99.90
19168;DHT22;9716;53.114;18.040;2023-04-16T01:43:37;10.10;99.90
19168;DHT22;9716;53.114;18.040;2023-04-16T01:46:14;10.10;99.90
19168;DHT22;9716;53.114;18.040;2023-04-16T01:48:43;10.10;99.90
19168;DHT22;9716;53.114;18.040;2023-04-16T01:51:11;10.10;99.90
19168;DHT22;9716;53.114;18.040;2023-04-16T01:53:41;10.10;99.90
19168;DHT22;9716;53.114;18.040;2023-04-16T01:56:10;10.10;99.90
19168;DHT22;9716;53.114;18.040;2023-04-16T01:58:38;10.10;99.90
19168;DHT22;9716;53.114;18.040;2023-04-16T02:01:08;10.10;99.90
19168;DHT22;9716;53.114;18.040;2023-04-16T02:03:37;10.00;99.90
19168;DHT22;9716;53.114;18.040;2023-04-16T02:06:06;10.00;99.90
19168;DHT22;9716;53.114;18.040;2023-04-16T02:08:34;10.00;99.90
19168;DHT22;9716;53.114;18.040;2023-04-16T02:11:04;10.00;99.90
19168;DHT22;9716;53.114;18.040;2023-04-16T02:13:33;10.00;99.90
19168;DHT22;9716;53.114;18.040;2023-04-16T02:16:01;10.00;99.90
19168;DHT22;9716;53.114;18.040;2023-04-16T02:18:30;10.00;99.90
19168;DHT22;9716;53.114;18.040;2023-04-16T02:20:58;9.90;99.90
19168;DHT22;9716;53.114;18.040;2023-04-16T02:23:27;10.00;99.90
19168;DHT22;9716;53.114;18.040;2023-04-16T02:25:55;10.00;99.90
19168;DHT22;9716;53.114;18.040;2023-04-16T02:28:25;10.00;99.90
19168;DHT22;9716;53.114;18.040;2023-04-16T02:30:54;10.00;99.90
19168;DHT22;9716;53.114;18.040;2023-04-16T02:33:22;10.00;99.90
19168;DHT22;9716;53.114;18.040;2023-04-16T02:35:52;9.90;99.90
19168;DHT22;9716;53.114;18.040;2023-04-16T02:38:20;10.00;99.90
19168;DHT22;9716;53.114;18.040;2023-04-16T02:40:49;9.90;99.90
19168;DHT22;9716;53.114;18.040;2023-04-16T02:43:17;9.90;99.90
19168;DHT22;9716;53.114;18.040;2023-04-16T02:45:47;9.90;99.90
19168;DHT22;9716;53.114;18.040;2023-04-16T02:48:16;10.00;99.90
19168;DHT22;9716;53.114;18.040;2023-04-16T02:50:44;9.90;99.90
19168;DHT22;9716;53.114;18.040;2023-04-16T02:53:13;9.90;99.90
19168;DHT22;9716;53.114;18.040;2023-04-16T02:55:48;9.90;99.90
19168;DHT22;9716;53.114;18.040;2023-04-16T02:58:18;9.90;99.90
19168;DHT22;9716;53.114;18.040;2023-04-16T03:00:48;9.90;99.90
19168;DHT22;9716;53.114;18.040;2023-04-16T03:03:17;9.90;99.90
19168;DHT22;9716;53.114;18.040;2023-04-16T03:05:46;9.90;99.90
19168;DHT22;9716;53.114;18.040;2023-04-16T03:08:14;9.90;99.90
19168;DHT22;9716;53.114;18.040;2023-04-16T03:10:43;9.90;99.90
19168;DHT22;9716;53.114;18.040;2023-04-16T03:13:11;9.90;99.90
19168;DHT22;9716;53.114;18.040;2023-04-16T03:15:40;9.90;99.90
19168;DHT22;9716;53.114;18.040;2023-04-16T03:18:10;9.80;99.90
19168;DHT22;9716;53.114;18.040;2023-04-16T03:20:38;9.80;99.90
19168;DHT22;9716;53.114;18.040;2023-04-16T03:23:07;9.80;99.90
19168;DHT22;9716;53.114;18.040;2023-04-16T03:25:35;9.80;99.90
19168;DHT22;9716;53.114;18.040;2023-04-16T03:28:06;9.80;99.90
19168;DHT22;9716;53.114;18.040;2023-04-16T03:30:35;9.80;99.90
19168;DHT22;9716;53.114;18.040;2023-04-16T03:33:03;9.80;99.90
19168;DHT22;9716;53.114;18.040;2023-04-16T03:35:33;9.80;99.90
19168;DHT22;9716;53.114;18.040;2023-04-16T03:38:01;9.80;99.90
19168;DHT22;9716;53.114;18.040;2023-04-16T03:40:30;9.80;99.90
19168;DHT22;9716;53.114;18.040;2023-04-16T03:42:58;9.80;99.90
19168;DHT22;9716;53.114;18.040;2023-04-16T03:45:27;9.70;99.90
19168;DHT22;9716;53.114;18.040;2023-04-16T03:47:55;9.70;99.90
19168;DHT22;9716;53.114;18.040;2023-04-16T03:50:24;9.80;99.90
19168;DHT22;9716;53.114;18.040;2023-04-16T03:52:53;9.70;99.90
19168;DHT22;9716;53.114;18.040;2023-04-16T03:55:22;9.70;99.90
19168;DHT22;9716;53.114;18.040;2023-04-16T03:57:50;9.70;99.90
19168;DHT22;9716;53.114;18.040;2023-04-16T04:00:19;9.60;99.90
19168;DHT22;9716;53.114;18.040;2023-04-16T04:02:47;9.60;99.90
19168;DHT22;9716;53.114;18.040;2023-04-16T04:05:16;9.60;99.90
19168;DHT22;9716;53.114;18.040;2023-04-16T04:07:45;9.60;99.90
19168;DHT22;9716;53.114;18.040;2023-04-16T04:10:15;9.60;99.90
19168;DHT22;9716;53.114;18.040;2023-04-16T04:12:43;9.60;99.90
19168;DHT22;9716;53.114;18.040;2023-04-16T04:15:12;9.60;99.90
19168;DHT22;9716;53.114;18.040;2023-04-16T04:17:41;9.60;99.90
19168;DHT22;9716;53.114;18.040;2023-04-16T04:20:11;9.60;99.90
19168;DHT22;9716;53.114;18.040;2023-04-16T04:22:39;9.60;99.90
19168;DHT22;9716;53.114;18.040;2023-04-16T04:25:09;9.60;99.90
19168;DHT22;9716;53.114;18.040;2023-04-16T04:27:39;9.60;99.90
19168;DHT22;9716;53.114;18.040;2023-04-16T04:30:09;9.60;99.90
19168;DHT22;9716;53.114;18.040;2023-04-16T04:32:37;9.60;99.90
19168;DHT22;9716;53.114;18.040;2023-04-16T04:35:07;9.60;99.90
19168;DHT22;9716;53.114;18.040;2023-04-16T04:37:35;9.60;99.90
19168;DHT22;9716;53.114;18.040;2023-04-16T04:40:05;9.60;99.90
19168;DHT22;9716;53.114;18.040;2023-04-16T04:42:34;9.60;99.90
19168;DHT22;9716;53.114;18.040;2023-04-16T04:45:05;9.60;99.90
19168;DHT22;9716;53.114;18.040;2023-04-16T04:47:33;9.60;99.90
19168;DHT22;9716;53.114;18.040;2023-04-16T04:50:02;9.60;99.90
19168;DHT22;9716;53.114;18.040;2023-04-16T04:52:31;9.60;99.90
19168;DHT22;9716;53.114;18.040;2023-04-16T04:54:59;9.60;99.90
19168;DHT22;9716;53.114;18.040;2023-04-16T04:57:27;9.60;99.90
19168;DHT22;9716;53.114;18.040;2023-04-16T04:59:56;9.60;99.90
19168;DHT22;9716;53.114;18.040;2023-04-16T05:02:26;9.60;99.90
19168;DHT22;9716;53.114;18.040;2023-04-16T05:04:55;9.60;99.90
19168;DHT22;9716;53.114;18.040;2023-04-16T05:07:23;9.60;99.90
19168;DHT22;9716;53.114;18.040;2023-04-16T05:09:52;9.60;99.90
19168;DHT22;9716;53.114;18.040;2023-04-16T05:12:20;9.60;99.90
19168;DHT22;9716;53.114;18.040;2023-04-16T05:14:49;9.60;99.90
19168;DHT22;9716;53.114;18.040;2023-04-16T05:17:17;9.70;99.90
19168;DHT22;9716;53.114;18.040;2023-04-16T05:19:47;9.70;99.90
19168;DHT22;9716;53.114;18.040;2023-04-16T05:22:15;9.70;99.90
19168;DHT22;9716;53.114;18.040;2023-04-16T05:24:45;9.70;99.90
19168;DHT22;9716;53.114;18.040;2023-04-16T05:27:13;9.70;99.90
19168;DHT22;9716;53.114;18.040;2023-04-16T05:29:42;9.70;99.90
19168;DHT22;9716;53.114;18.040;2023-04-16T05:32:10;9.80;99.90
19168;DHT22;9716;53.114;18.040;2023-04-16T05:34:39;9.70;99.90
19168;DHT22;9716;53.114;18.040;2023-04-16T05:37:09;9.70;99.90
19168;DHT22;9716;53.114;18.040;2023-04-16T05:39:37;9.80;99.90
19168;DHT22;9716;53.114;18.040;2023-04-16T05:42:06;9.80;99.90
19168;DHT22;9716;53.114;18.040;2023-04-16T05:44:34;9.80;99.90
19168;DHT22;9716;53.114;18.040;2023-04-16T05:47:03;9.80;99.90
19168;DHT22;9716;53.114;18.040;2023-04-16T05:49:33;9.80;99.90
19168;DHT22;9716;53.114;18.040;2023-04-16T05:52:02;9.70;99.90
19168;DHT22;9716;53.114;18.040;2023-04-16T05:54:32;9.80;99.90
19168;DHT22;9716;53.114;18.040;2023-04-16T05:57:00;9.80;99.90
19168;DHT22;9716;53.114;18.040;2023-04-16T05:59:29;9.80;99.90
19168;DHT22;9716;53.114;18.040;2023-04-16T06:01:57;9.80;99.90
19168;DHT22;9716;53.114;18.040;2023-04-16T06:04:26;9.90;99.90
19168;DHT22;9716;53.114;18.040;2023-04-16T06:07:12;9.90;99.90
19168;DHT22;9716;53.114;18.040;2023-04-16T06:09:43;9.90;99.90
19168;DHT22;9716;53.114;18.040;2023-04-16T06:12:11;9.90;99.90
19168;DHT22;9716;53.114;18.040;2023-04-16T06:14:40;10.00;99.90
19168;DHT22;9716;53.114;18.040;2023-04-16T06:17:08;10.00;99.90
19168;DHT22;9716;53.114;18.040;2023-04-16T06:19:37;10.00;99.90
19168;DHT22;9716;53.114;18.040;2023-04-16T06:22:06;10.00;99.90
19168;DHT22;9716;53.114;18.040;2023-04-16T06:24:35;10.00;99.90
19168;DHT22;9716;53.114;18.040;2023-04-16T06:27:05;10.00;99.90
19168;DHT22;9716;53.114;18.040;2023-04-16T06:29:34;10.10;99.90
19168;DHT22;9716;53.114;18.040;2023-04-16T06:32:07;10.10;99.90
19168;DHT22;9716;53.114;18.040;2023-04-16T06:34:36;10.10;99.90
19168;DHT22;9716;53.114;18.040;2023-04-16T06:37:05;10.10;99.90
19168;DHT22;9716;53.114;18.040;2023-04-16T06:39:36;10.10;99.90
19168;DHT22;9716;53.114;18.040;2023-04-16T06:42:06;10.10;99.90
19168;DHT22;9716;53.114;18.040;2023-04-16T06:44:35;10.10;99.90
19168;DHT22;9716;53.114;18.040;2023-04-16T06:47:03;10.10;99.90
19168;DHT22;9716;53.114;18.040;2023-04-16T06:49:32;10.10;99.90
19168;DHT22;9716;53.114;18.040;2023-04-16T06:52:00;10.10;99.90
19168;DHT22;9716;53.114;18.040;2023-04-16T06:54:32;10.10;99.90
19168;DHT22;9716;53.114;18.040;2023-04-16T06:57:00;10.10;99.90
19168;DHT22;9716;53.114;18.040;2023-04-16T06:59:30;10.50;99.90
19168;DHT22;9716;53.114;18.040;2023-04-16T07:01:58;10.10;99.90
19168;DHT22;9716;53.114;18.040;2023-04-16T07:04:27;10.10;99.90
19168;DHT22;9716;53.114;18.040;2023-04-16T07:06:56;10.10;99.90
19168;DHT22;9716;53.114;18.040;2023-04-16T07:09:24;10.10;99.90
19168;DHT22;9716;53.114;18.040;2023-04-16T07:11:53;10.10;99.90
19168;DHT22;9716;53.114;18.040;2023-04-16T07:14:22;10.10;99.90
19168;DHT22;9716;53.114;18.040;2023-04-16T07:16:52;10.00;99.90
19168;DHT22;9716;53.114;18.040;2023-04-16T07:19:21;10.10;99.90
19168;DHT22;9716;53.114;18.040;2023-04-16T07:21:49;10.10;99.90
19168;DHT22;9716;53.114;18.040;2023-04-16T07:24:18;10.10;99.90
19168;DHT22;9716;53.114;18.040;2023-04-16T07:26:46;10.00;99.90
19168;DHT22;9716;53.114;18.040;2023-04-16T07:29:15;10.00;99.90
19168;DHT22;9716;53.114;18.040;2023-04-16T07:31:44;10.00;99.90
19168;DHT22;9716;53.114;18.040;2023-04-16T07:34:14;10.00;99.90
19168;DHT22;9716;53.114;18.040;2023-04-16T07:36:42;10.00;99.90
19168;DHT22;9716;53.114;18.040;2023-04-16T07:39:11;10.00;99.90
19168;DHT22;9716;53.114;18.040;2023-04-16T07:41:39;10.00;99.90
19168;DHT22;9716;53.114;18.040;2023-04-16T07:44:08;10.00;99.90
19168;DHT22;9716;53.114;18.040;2023-04-16T07:46:36;10.10;99.90
19168;DHT22;9716;53.114;18.040;2023-04-16T07:49:14;10.00;99.90
19168;DHT22;9716;53.114;18.040;2023-04-16T07:51:43;10.10;99.90
19168;DHT22;9716;53.114;18.040;2023-04-16T07:54:12;10.10;99.90
19168;DHT22;9716;53.114;18.040;2023-04-16T07:56:40;10.10;99.90
19168;DHT22;9716;53.114;18.040;2023-04-16T07:59:09;10.10;99.90
19168;DHT22;9716;53.114;18.040;2023-04-16T08:01:49;10.10;99.90
19168;DHT22;9716;53.114;18.040;2023-04-16T08:04:19;10.20;99.90
19168;DHT22;9716;53.114;18.040;2023-04-16T08:06:52;10.20;99.90
19168;DHT22;9716;53.114;18.040;2023-04-16T08:09:22;10.20;99.90
19168;DHT22;9716;53.114;18.040;2023-04-16T08:11:50;10.30;99.90
19168;DHT22;9716;53.114;18.040;2023-04-16T08:14:19;10.30;99.90
19168;DHT22;9716;53.114;18.040;2023-04-16T08:16:48;10.30;99.90
19168;DHT22;9716;53.114;18.040;2023-04-16T08:19:18;10.30;99.90
19168;DHT22;9716;53.114;18.040;2023-04-16T08:21:47;10.30;99.90
19168;DHT22;9716;53.114;18.040;2023-04-16T08:24:16;10.30;99.90
19168;DHT22;9716;53.114;18.040;2023-04-16T08:26:44;10.30;99.90
19168;DHT22;9716;53.114;18.040;2023-04-16T08:29:13;10.40;99.90
19168;DHT22;9716;53.114;18.040;2023-04-16T08:31:41;10.40;99.90
19168;DHT22;9716;53.114;18.040;2023-04-16T08:34:10;10.40;99.90
19168;DHT22;9716;53.114;18.040;2023-04-16T08:36:40;10.40;99.90
19168;DHT22;9716;53.114;18.040;2023-04-16T08:39:09;10.40;99.90
19168;DHT22;9716;53.114;18.040;2023-04-16T08:41:41;10.40;99.90
19168;DHT22;9716;53.114;18.040;2023-04-16T08:44:13;10.40;99.90
19168;DHT22;9716;53.114;18.040;2023-04-16T08:46:46;10.50;99.90
19168;DHT22;9716;53.114;18.040;2023-04-16T08:49:16;10.50;99.90
19168;DHT22;9716;53.114;18.040;2023-04-16T08:51:49;10.50;99.90
19168;DHT22;9716;53.114;18.040;2023-04-16T08:54:38;10.50;99.90
19168;DHT22;9716;53.114;18.040;2023-04-16T08:57:09;10.60;99.90
19168;DHT22;9716;53.114;18.040;2023-04-16T08:59:39;10.60;99.90
19168;DHT22;9716;53.114;18.040;2023-04-16T09:02:10;10.60;99.90
19168;DHT22;9716;53.114;18.040;2023-04-16T09:04:40;10.60;99.90
19168;DHT22;9716;53.114;18.040;2023-04-16T09:07:10;10.60;99.90
19168;DHT22;9716;53.114;18.040;2023-04-16T09:09:39;10.60;99.90
19168;DHT22;9716;53.114;18.040;2023-04-16T09:12:09;10.50;99.90
19168;DHT22;9716;53.114;18.040;2023-04-16T09:14:38;10.60;99.90
19168;DHT22;9716;53.114;18.040;2023-04-16T09:17:08;10.60;99.90
19168;DHT22;9716;53.114;18.040;2023-04-16T09:19:37;10.60;99.90
19168;DHT22;9716;53.114;18.040;2023-04-16T09:22:12;10.60;99.90
19168;DHT22;9716;53.114;18.040;2023-04-16T09:24:41;10.60;99.90
19168;DHT22;9716;53.114;18.040;2023-04-16T09:27:11;10.60;99.90
19168;DHT22;9716;53.114;18.040;2023-04-16T09:29:40;10.60;99.90
19168;DHT22;9716;53.114;18.040;2023-04-16T09:32:10;10.60;99.90
19168;DHT22;9716;53.114;18.040;2023-04-16T09:34:56;10.70;99.90
19168;DHT22;9716;53.114;18.040;2023-04-16T09:37:27;10.70;99.90
19168;DHT22;9716;53.114;18.040;2023-04-16T09:39:58;10.80;99.90
19168;DHT22;9716;53.114;18.040;2023-04-16T09:42:28;10.80;99.90
19168;DHT22;9716;53.114;18.040;2023-04-16T09:45:00;10.90;99.90
19168;DHT22;9716;53.114;18.040;2023-04-16T09:47:39;10.90;99.90
19168;DHT22;9716;53.114;18.040;2023-04-16T09:50:09;11.00;99.90
19168;DHT22;9716;53.114;18.040;2023-04-16T09:52:48;11.10;99.90
19168;DHT22;9716;53.114;18.040;2023-04-16T09:55:22;11.10;99.90
19168;DHT22;9716;53.114;18.040;2023-04-16T09:57:57;11.20;99.90
19168;DHT22;9716;53.114;18.040;2023-04-16T10:00:28;11.30;99.90
19168;DHT22;9716;53.114;18.040;2023-04-16T10:03:04;11.30;99.90
19168;DHT22;9716;53.114;18.040;2023-04-16T10:05:34;11.40;99.90
19168;DHT22;9716;53.114;18.040;2023-04-16T10:08:10;11.50;99.90
19168;DHT22;9716;53.114;18.040;2023-04-16T10:10:39;11.60;99.90
19168;DHT22;9716;53.114;18.040;2023-04-16T10:13:08;11.60;99.90
19168;DHT22;9716;53.114;18.040;2023-04-16T10:15:39;11.70;99.90
19168;DHT22;9716;53.114;18.040;2023-04-16T10:18:08;11.60;99.90
19168;DHT22;9716;53.114;18.040;2023-04-16T10:20:37;11.60;99.90
19168;DHT22;9716;53.114;18.040;2023-04-16T10:23:07;11.50;99.90
19168;DHT22;9716;53.114;18.040;2023-04-16T10:25:37;11.70;99.90
19168;DHT22;9716;53.114;18.040;2023-04-16T10:28:06;11.70;99.90
19168;DHT22;9716;53.114;18.040;2023-04-16T10:30:36;11.80;99.90
19168;DHT22;9716;53.114;18.040;2023-04-16T10:33:06;11.90;99.90
19168;DHT22;9716;53.114;18.040;2023-04-16T10:35:38;11.90;99.90
19168;DHT22;9716;53.114;18.040;2023-04-16T10:38:23;12.00;99.90
19168;DHT22;9716;53.114;18.040;2023-04-16T10:40:58;12.10;99.90
19168;DHT22;9716;53.114;18.040;2023-04-16T10:43:28;12.20;99.90
19168;DHT22;9716;53.114;18.040;2023-04-16T10:46:00;12.20;99.90
19168;DHT22;9716;53.114;18.040;2023-04-16T10:48:44;12.40;99.90
19168;DHT22;9716;53.114;18.040;2023-04-16T10:51:23;12.60;99.90
19168;DHT22;9716;53.114;18.040;2023-04-16T10:53:56;12.80;99.90
19168;DHT22;9716;53.114;18.040;2023-04-16T10:56:26;13.00;99.90
19168;DHT22;9716;53.114;18.040;2023-04-16T10:58:54;13.10;99.90
19168;DHT22;9716;53.114;18.040;2023-04-16T11:01:29;13.20;99.90
19168;DHT22;9716;53.114;18.040;2023-04-16T11:03:59;13.30;99.90
19168;DHT22;9716;53.114;18.040;2023-04-16T11:06:31;13.30;99.90
19168;DHT22;9716;53.114;18.040;2023-04-16T11:09:02;13.30;99.90
19168;DHT22;9716;53.114;18.040;2023-04-16T11:11:37;13.30;99.90
19168;DHT22;9716;53.114;18.040;2023-04-16T11:14:05;13.20;99.90
19168;DHT22;9716;53.114;18.040;2023-04-16T11:16:39;13.20;99.90
19168;DHT22;9716;53.114;18.040;2023-04-16T11:19:15;13.20;99.90
19168;DHT22;9716;53.114;18.040;2023-04-16T11:21:44;13.10;99.90
19168;DHT22;9716;53.114;18.040;2023-04-16T11:24:14;13.00;99.90
19168;DHT22;9716;53.114;18.040;2023-04-16T11:26:42;13.00;99.90
19168;DHT22;9716;53.114;18.040;2023-04-16T11:29:13;13.00;99.90
19168;DHT22;9716;53.114;18.040;2023-04-16T11:31:46;13.00;99.90
19168;DHT22;9716;53.114;18.040;2023-04-16T11:34:17;13.00;99.90
19168;DHT22;9716;53.114;18.040;2023-04-16T11:36:47;13.00;99.90
19168;DHT22;9716;53.114;18.040;2023-04-16T11:39:17;13.00;99.90
19168;DHT22;9716;53.114;18.040;2023-04-16T11:41:46;12.90;99.90
19168;DHT22;9716;53.114;18.040;2023-04-16T11:44:19;12.90;99.90
19168;DHT22;9716;53.114;18.040;2023-04-16T11:46:49;12.90;99.90
19168;DHT22;9716;53.114;18.040;2023-04-16T11:49:26;12.90;99.90
19168;DHT22;9716;53.114;18.040;2023-04-16T11:51:56;12.90;99.90
19168;DHT22;9716;53.114;18.040;2023-04-16T11:54:25;12.90;99.90
19168;DHT22;9716;53.114;18.040;2023-04-16T11:56:57;12.90;99.90
19168;DHT22;9716;53.114;18.040;2023-04-16T11:59:26;12.90;99.90
19168;DHT22;9716;53.114;18.040;2023-04-16T12:01:55;12.80;99.90
19168;DHT22;9716;53.114;18.040;2023-04-16T12:04:24;12.80;99.90
19168;DHT22;9716;53.114;18.040;2023-04-16T12:07:09;12.70;99.90
19168;DHT22;9716;53.114;18.040;2023-04-16T12:09:40;12.60;99.90
19168;DHT22;9716;53.114;18.040;2023-04-16T12:12:25;12.50;99.90
19168;DHT22;9716;53.114;18.040;2023-04-16T12:14:57;12.40;99.90
19168;DHT22;9716;53.114;18.040;2023-04-16T12:17:31;12.40;99.90
19168;DHT22;9716;53.114;18.040;2023-04-16T12:20:01;12.40;99.90
19168;DHT22;9716;53.114;18.040;2023-04-16T12:22:33;12.40;99.90
19168;DHT22;9716;53.114;18.040;2023-04-16T12:25:06;12.40;99.90
19168;DHT22;9716;53.114;18.040;2023-04-16T12:27:44;12.40;99.90
19168;DHT22;9716;53.114;18.040;2023-04-16T12:30:16;12.30;99.90
19168;DHT22;9716;53.114;18.040;2023-04-16T12:32:46;12.40;99.90
19168;DHT22;9716;53.114;18.040;2023-04-16T12:35:28;12.30;99.90
19168;DHT22;9716;53.114;18.040;2023-04-16T12:37:57;12.40;99.90
19168;DHT22;9716;53.114;18.040;2023-04-16T12:40:27;12.40;99.90
19168;DHT22;9716;53.114;18.040;2023-04-16T12:42:56;12.40;99.90
19168;DHT22;9716;53.114;18.040;2023-04-16T12:45:24;12.40;99.90
19168;DHT22;9716;53.114;18.040;2023-04-16T12:47:53;12.40;99.90
19168;DHT22;9716;53.114;18.040;2023-04-16T12:50:22;12.40;99.90
19168;DHT22;9716;53.114;18.040;2023-04-16T12:52:51;12.40;99.90
19168;DHT22;9716;53.114;18.040;2023-04-16T12:55:19;12.30;99.90
19168;DHT22;9716;53.114;18.040;2023-04-16T12:57:49;12.20;99.90
19168;DHT22;9716;53.114;18.040;2023-04-16T13:00:19;12.20;99.90
19168;DHT22;9716;53.114;18.040;2023-04-16T13:02:48;12.20;99.90
19168;DHT22;9716;53.114;18.040;2023-04-16T13:05:16;12.30;99.90
19168;DHT22;9716;53.114;18.040;2023-04-16T13:07:45;12.30;99.90
19168;DHT22;9716;53.114;18.040;2023-04-16T13:10:14;12.40;99.90
19168;DHT22;9716;53.114;18.040;2023-04-16T13:12:43;12.40;99.90
19168;DHT22;9716;53.114;18.040;2023-04-16T13:15:13;12.40;99.90
19168;DHT22;9716;53.114;18.040;2023-04-16T13:17:42;12.40;99.90
19168;DHT22;9716;53.114;18.040;2023-04-16T13:20:11;12.40;99.90
19168;DHT22;9716;53.114;18.040;2023-04-16T13:22:40;12.40;99.90
19168;DHT22;9716;53.114;18.040;2023-04-16T13:25:08;12.40;99.90
19168;DHT22;9716;53.114;18.040;2023-04-16T13:27:37;12.40;99.90
19168;DHT22;9716;53.114;18.040;2023-04-16T13:30:06;12.40;99.90
19168;DHT22;9716;53.114;18.040;2023-04-16T13:32:37;12.40;99.90
19168;DHT22;9716;53.114;18.040;2023-04-16T13:35:09;12.40;99.90
19168;DHT22;9716;53.114;18.040;2023-04-16T13:37:38;12.40;99.90
19168;DHT22;9716;53.114;18.040;2023-04-16T13:40:07;12.40;99.90
19168;DHT22;9716;53.114;18.040;2023-04-16T13:42:36;12.30;99.90
19168;DHT22;9716;53.114;18.040;2023-04-16T13:45:05;12.30;99.90
19168;DHT22;9716;53.114;18.040;2023-04-16T13:47:39;12.30;99.90
19168;DHT22;9716;53.114;18.040;2023-04-16T13:50:09;12.20;99.90
19168;DHT22;9716;53.114;18.040;2023-04-16T13:52:37;12.20;99.90
19168;DHT22;9716;53.114;18.040;2023-04-16T13:55:06;12.20;99.90
19168;DHT22;9716;53.114;18.040;2023-04-16T13:57:36;12.20;99.90
19168;DHT22;9716;53.114;18.040;2023-04-16T14:00:05;12.20;99.90
19168;DHT22;9716;53.114;18.040;2023-04-16T14:02:40;12.20;99.90
19168;DHT22;9716;53.114;18.040;2023-04-16T14:05:09;12.10;99.90
19168;DHT22;9716;53.114;18.040;2023-04-16T14:07:37;12.10;99.90
19168;DHT22;9716;53.114;18.040;2023-04-16T14:10:07;12.10;99.90
19168;DHT22;9716;53.114;18.040;2023-04-16T14:12:36;12.10;99.90
19168;DHT22;9716;53.114;18.040;2023-04-16T14:15:06;12.10;99.90
19168;DHT22;9716;53.114;18.040;2023-04-16T14:17:36;12.10;99.90
19168;DHT22;9716;53.114;18.040;2023-04-16T14:20:06;12.10;99.90
19168;DHT22;9716;53.114;18.040;2023-04-16T14:22:35;12.10;99.90
19168;DHT22;9716;53.114;18.040;2023-04-16T14:25:04;12.00;99.90
19168;DHT22;9716;53.114;18.040;2023-04-16T14:27:33;12.00;99.90
19168;DHT22;9716;53.114;18.040;2023-04-16T14:30:02;11.90;99.90
19168;DHT22;9716;53.114;18.040;2023-04-16T14:32:31;11.90;99.90
19168;DHT22;9716;53.114;18.040;2023-04-16T14:34:59;11.80;99.90
19168;DHT22;9716;53.114;18.040;2023-04-16T14:37:29;11.80;99.90
19168;DHT22;9716;53.114;18.040;2023-04-16T14:39:59;11.80;99.90
19168;DHT22;9716;53.114;18.040;2023-04-16T14:42:27;11.80;99.90
19168;DHT22;9716;53.114;18.040;2023-04-16T14:44:55;11.80;99.90
19168;DHT22;9716;53.114;18.040;2023-04-16T14:47:24;11.80;99.90
19168;DHT22;9716;53.114;18.040;2023-04-16T14:49:53;11.80;99.90
19168;DHT22;9716;53.114;18.040;2023-04-16T14:52:21;11.80;99.90
19168;DHT22;9716;53.114;18.040;2023-04-16T14:54:51;11.70;99.90
19168;DHT22;9716;53.114;18.040;2023-04-16T14:57:21;11.70;99.90
19168;DHT22;9716;53.114;18.040;2023-04-16T14:59:49;11.80;99.90
19168;DHT22;9716;53.114;18.040;2023-04-16T15:02:18;11.70;99.90
19168;DHT22;9716;53.114;18.040;2023-04-16T15:04:47;11.70;99.90
19168;DHT22;9716;53.114;18.040;2023-04-16T15:07:16;11.70;99.90
19168;DHT22;9716;53.114;18.040;2023-04-16T15:09:44;11.60;99.90
19168;DHT22;9716;53.114;18.040;2023-04-16T15:12:14;11.60;99.90
19168;DHT22;9716;53.114;18.040;2023-04-16T15:14:48;11.60;99.90
19168;DHT22;9716;53.114;18.040;2023-04-16T15:17:16;11.60;99.90
19168;DHT22;9716;53.114;18.040;2023-04-16T15:19:45;11.60;99.90
19168;DHT22;9716;53.114;18.040;2023-04-16T15:22:15;11.50;99.90
19168;DHT22;9716;53.114;18.040;2023-04-16T15:24:43;11.40;99.90
19168;DHT22;9716;53.114;18.040;2023-04-16T15:27:12;11.40;99.90
19168;DHT22;9716;53.114;18.040;2023-04-16T15:29:44;11.40;99.90
19168;DHT22;9716;53.114;18.040;2023-04-16T15:32:15;11.30;99.90
19168;DHT22;9716;53.114;18.040;2023-04-16T15:34:44;11.30;99.90
19168;DHT22;9716;53.114;18.040;2023-04-16T15:37:14;11.20;99.90
19168;DHT22;9716;53.114;18.040;2023-04-16T15:39:43;11.20;99.90
19168;DHT22;9716;53.114;18.040;2023-04-16T15:42:11;11.20;99.90
19168;DHT22;9716;53.114;18.040;2023-04-16T15:44:40;11.20;99.90
19168;DHT22;9716;53.114;18.040;2023-04-16T15:47:10;11.20;99.90
19168;DHT22;9716;53.114;18.040;2023-04-16T15:49:38;11.20;99.90
19168;DHT22;9716;53.114;18.040;2023-04-16T15:52:08;11.20;99.90